sensor_id;sensor_type;location;lat;lon;timestamp;pressure;altitude;pressure_sealevel;temperature;humidity
64294;BME280;50636;45.596;5.258;2022-09-16T00:00:51;98219.66;;;22.02;70.21
64294;BME280;50636;45.596;5.258;2022-09-16T00:03:17;98223.09;;;21.84;70.62
64294;BME280;50636;45.596;5.258;2022-09-16T00:05:43;98219.97;;;21.77;71.26
64294;BME280;50636;45.596;5.258;2022-09-16T00:08:09;98225.16;;;21.68;72.29
64294;BME280;50636;45.596;5.258;2022-09-16T00:10:35;98222.22;;;21.40;73.73
64294;BME280;50636;45.596;5.258;2022-09-16T00:13:01;98231.41;;;21.29;76.45
64294;BME280;50636;45.596;5.258;2022-09-16T00:15:27;98231.34;;;21.34;78.25
64294;BME280;50636;45.596;5.258;2022-09-16T00:17:52;98235.50;;;21.16;79.06
64294;BME280;50636;45.596;5.258;2022-09-16T00:20:18;98231.03;;;20.77;80.32
64294;BME280;50636;45.596;5.258;2022-09-16T00:22:43;98237.50;;;20.66;82.31
64294;BME280;50636;45.596;5.258;2022-09-16T00:25:09;98236.19;;;20.58;83.14
64294;BME280;50636;45.596;5.258;2022-09-16T00:27:34;98250.66;;;20.47;84.13
64294;BME280;50636;45.596;5.258;2022-09-16T00:30:00;98240.13;;;20.26;84.54
64294;BME280;50636;45.596;5.258;2022-09-16T00:32:25;98242.06;;;20.05;85.82
64294;BME280;50636;45.596;5.258;2022-09-16T00:34:51;98234.34;;;20.04;86.88
64294;BME280;50636;45.596;5.258;2022-09-16T00:37:16;98246.09;;;19.98;87.04
64294;BME280;50636;45.596;5.258;2022-09-16T00:39:42;98241.91;;;19.76;87.32
64294;BME280;50636;45.596;5.258;2022-09-16T00:42:10;98245.38;;;19.61;88.30
64294;BME280;50636;45.596;5.258;2022-09-16T00:47:25;98239.25;;;19.71;90.02
64294;BME280;50636;45.596;5.258;2022-09-16T00:49:54;98238.19;;;19.67;90.18
64294;BME280;50636;45.596;5.258;2022-09-16T00:52:21;98233.41;;;19.59;90.51
64294;BME280;50636;45.596;5.258;2022-09-16T00:54:47;98237.41;;;19.51;90.73
64294;BME280;50636;45.596;5.258;2022-09-16T00:57:13;98237.19;;;19.42;90.82
64294;BME280;50636;45.596;5.258;2022-09-16T00:59:40;98235.59;;;19.36;91.49
64294;BME280;50636;45.596;5.258;2022-09-16T01:02:09;98230.47;;;19.60;93.39
64294;BME280;50636;45.596;5.258;2022-09-16T01:04:40;98230.94;;;19.98;93.91
64294;BME280;50636;45.596;5.258;2022-09-16T01:07:08;98241.59;;;19.93;92.63
64294;BME280;50636;45.596;5.258;2022-09-16T01:09:33;98238.13;;;19.87;93.44
64294;BME280;50636;45.596;5.258;2022-09-16T01:11:59;98239.97;;;19.92;93.46
64294;BME280;50636;45.596;5.258;2022-09-16T01:14:28;98234.59;;;20.07;94.67
64294;BME280;50636;45.596;5.258;2022-09-16T01:22:43;98244.47;;;20.57;95.45
64294;BME280;50636;45.596;5.258;2022-09-16T01:25:31;98233.28;;;20.54;94.83
64294;BME280;50636;45.596;5.258;2022-09-16T01:33:00;98227.19;;;20.49;94.45
64294;BME280;50636;45.596;5.258;2022-09-16T01:41:00;98230.13;;;20.47;94.06
64294;BME280;50636;45.596;5.258;2022-09-16T01:46:09;98230.63;;;20.54;94.44
64294;BME280;50636;45.596;5.258;2022-09-16T01:48:42;98234.06;;;20.60;93.93
64294;BME280;50636;45.596;5.258;2022-09-16T01:51:12;98231.91;;;20.62;93.98
64294;BME280;50636;45.596;5.258;2022-09-16T02:01:55;98237.13;;;20.83;94.02
64294;BME280;50636;45.596;5.258;2022-09-16T02:04:26;98236.47;;;20.62;92.98
64294;BME280;50636;45.596;5.258;2022-09-16T02:06:53;98237.16;;;20.78;94.62
64294;BME280;50636;45.596;5.258;2022-09-16T02:09:21;98229.66;;;20.80;94.69
64294;BME280;50636;45.596;5.258;2022-09-16T02:11:49;98237.91;;;20.83;94.79
64294;BME280;50636;45.596;5.258;2022-09-16T02:14:26;98241.88;;;20.86;94.49
64294;BME280;50636;45.596;5.258;2022-09-16T02:16:55;98237.31;;;20.91;94.19
64294;BME280;50636;45.596;5.258;2022-09-16T02:19:23;98236.81;;;20.89;93.52
64294;BME280;50636;45.596;5.258;2022-09-16T02:21:51;98242.69;;;20.86;93.10
64294;BME280;50636;45.596;5.258;2022-09-16T02:24:18;98236.97;;;21.03;93.48
64294;BME280;50636;45.596;5.258;2022-09-16T02:26:46;98242.84;;;21.00;92.12
64294;BME280;50636;45.596;5.258;2022-09-16T02:29:15;98235.94;;;20.99;91.89
64294;BME280;50636;45.596;5.258;2022-09-16T02:31:42;98233.50;;;21.03;91.83
64294;BME280;50636;45.596;5.258;2022-09-16T02:34:11;98238.19;;;21.16;92.20
64294;BME280;50636;45.596;5.258;2022-09-16T02:36:39;98248.63;;;21.42;91.96
64294;BME280;50636;45.596;5.258;2022-09-16T02:39:09;98236.25;;;21.51;90.70
64294;BME280;50636;45.596;5.258;2022-09-16T02:41:38;98232.31;;;21.72;90.59
64294;BME280;50636;45.596;5.258;2022-09-16T02:44:05;98239.91;;;21.60;87.90
64294;BME280;50636;45.596;5.258;2022-09-16T02:46:54;98235.50;;;21.16;87.33
64294;BME280;50636;45.596;5.258;2022-09-16T02:49:26;98238.34;;;21.25;89.05
64294;BME280;50636;45.596;5.258;2022-09-16T02:55:21;98241.34;;;21.23;87.80
64294;BME280;50636;45.596;5.258;2022-09-16T02:57:21;98237.78;;;21.33;88.35
64294;BME280;50636;45.596;5.258;2022-09-16T02:59:46;98236.25;;;21.51;88.89
64294;BME280;50636;45.596;5.258;2022-09-16T03:02:16;98235.22;;;21.76;88.42
64294;BME280;50636;45.596;5.258;2022-09-16T03:04:44;98233.53;;;21.61;87.42
64294;BME280;50636;45.596;5.258;2022-09-16T03:07:10;98244.09;;;21.71;86.50
64294;BME280;50636;45.596;5.258;2022-09-16T03:09:36;98241.72;;;21.65;84.14
64294;BME280;50636;45.596;5.258;2022-09-16T03:17:20;98226.63;;;21.55;84.75
64294;BME280;50636;45.596;5.258;2022-09-16T03:22:29;98235.72;;;21.54;83.44
64294;BME280;50636;45.596;5.258;2022-09-16T03:25:21;98233.91;;;21.49;83.47
64294;BME280;50636;45.596;5.258;2022-09-16T03:27:51;98230.56;;;21.33;83.91
64294;BME280;50636;45.596;5.258;2022-09-16T03:30:21;98233.59;;;21.22;84.44
64294;BME280;50636;45.596;5.258;2022-09-16T03:32:56;98223.38;;;21.00;84.58
64294;BME280;50636;45.596;5.258;2022-09-16T03:35:26;98226.31;;;20.98;84.53
64294;BME280;50636;45.596;5.258;2022-09-16T03:37:54;98224.25;;;20.90;83.73
64294;BME280;50636;45.596;5.258;2022-09-16T03:40:21;98230.25;;;20.77;83.83
64294;BME280;50636;45.596;5.258;2022-09-16T03:42:47;98237.50;;;20.66;84.13
64294;BME280;50636;45.596;5.258;2022-09-16T03:45:14;98235.13;;;20.54;84.31
64294;BME280;50636;45.596;5.258;2022-09-16T03:47:40;98234.91;;;20.50;84.53
64294;BME280;50636;45.596;5.258;2022-09-16T03:50:06;98228.47;;;20.57;84.02
64294;BME280;50636;45.596;5.258;2022-09-16T03:52:31;98235.97;;;20.54;84.49
64294;BME280;50636;45.596;5.258;2022-09-16T03:54:57;98227.97;;;20.49;84.61
64294;BME280;50636;45.596;5.258;2022-09-16T03:57:22;98228.84;;;20.40;85.54
64294;BME280;50636;45.596;5.258;2022-09-16T03:59:48;98236.06;;;20.34;86.35
64294;BME280;50636;45.596;5.258;2022-09-16T04:02:13;98239.25;;;20.36;87.18
64294;BME280;50636;45.596;5.258;2022-09-16T04:04:38;98241.31;;;20.44;87.42
64294;BME280;50636;45.596;5.258;2022-09-16T04:07:04;98232.78;;;20.52;87.43
64294;BME280;50636;45.596;5.258;2022-09-16T04:09:29;98238.25;;;20.71;88.18
64294;BME280;50636;45.596;5.258;2022-09-16T04:11:55;98230.63;;;20.94;87.94
64294;BME280;50636;45.596;5.258;2022-09-16T04:14:20;98226.47;;;21.12;87.24
64294;BME280;50636;45.596;5.258;2022-09-16T04:16:46;98228.16;;;21.32;87.31
64294;BME280;50636;45.596;5.258;2022-09-16T04:19:12;98234.28;;;21.32;86.19
64294;BME280;50636;45.596;5.258;2022-09-16T04:21:38;98232.66;;;21.37;86.64
64294;BME280;50636;45.596;5.258;2022-09-16T04:24:04;98233.00;;;21.59;86.46
64294;BME280;50636;45.596;5.258;2022-09-16T04:26:29;98232.53;;;21.76;84.79
64294;BME280;50636;45.596;5.258;2022-09-16T04:28:55;98234.84;;;21.59;83.78
64294;BME280;50636;45.596;5.258;2022-09-16T04:31:20;98235.66;;;21.30;83.53
64294;BME280;50636;45.596;5.258;2022-09-16T04:33:46;98245.25;;;21.02;82.88
64294;BME280;50636;45.596;5.258;2022-09-16T04:36:12;98234.75;;;20.76;83.22
64294;BME280;50636;45.596;5.258;2022-09-16T04:38:38;98240.19;;;20.55;83.04
64294;BME280;50636;45.596;5.258;2022-09-16T04:41:05;98246.13;;;20.47;83.14
64294;BME280;50636;45.596;5.258;2022-09-16T04:43:30;98247.22;;;20.41;81.61
64294;BME280;50636;45.596;5.258;2022-09-16T04:45:56;98252.03;;;20.39;81.51
64294;BME280;50636;45.596;5.258;2022-09-16T04:48:22;98253.97;;;20.28;82.07
64294;BME280;50636;45.596;5.258;2022-09-16T04:50:47;98248.38;;;20.25;82.59
64294;BME280;50636;45.596;5.258;2022-09-16T04:53:12;98251.00;;;20.30;83.91
64294;BME280;50636;45.596;5.258;2022-09-16T04:55:38;98258.09;;;20.50;83.41
64294;BME280;50636;45.596;5.258;2022-09-16T04:58:03;98257.38;;;20.39;82.72
64294;BME280;50636;45.596;5.258;2022-09-16T05:00:29;98268.03;;;20.39;84.08
64294;BME280;50636;45.596;5.258;2022-09-16T05:02:54;98266.06;;;20.60;84.60
64294;BME280;50636;45.596;5.258;2022-09-16T05:05:20;98262.72;;;20.84;84.70
64294;BME280;50636;45.596;5.258;2022-09-16T05:07:46;98267.06;;;21.09;84.27
64294;BME280;50636;45.596;5.258;2022-09-16T05:10:11;98270.56;;;21.04;82.53
64294;BME280;50636;45.596;5.258;2022-09-16T05:12:37;98267.13;;;20.99;82.80
64294;BME280;50636;45.596;5.258;2022-09-16T05:15:03;98267.88;;;21.09;83.54
64294;BME280;50636;45.596;5.258;2022-09-16T05:17:28;98266.78;;;21.10;82.87
64294;BME280;50636;45.596;5.258;2022-09-16T05:19:55;98271.28;;;20.81;82.36
64294;BME280;50636;45.596;5.258;2022-09-16T05:22:20;98275.34;;;20.68;82.93
64294;BME280;50636;45.596;5.258;2022-09-16T05:24:46;98272.47;;;20.59;83.11
64294;BME280;50636;45.596;5.258;2022-09-16T05:27:11;98272.44;;;20.64;83.94
64294;BME280;50636;45.596;5.258;2022-09-16T05:29:37;98271.28;;;20.81;83.98
64294;BME280;50636;45.596;5.258;2022-09-16T05:32:02;98275.88;;;20.70;83.51
64294;BME280;50636;45.596;5.258;2022-09-16T05:34:28;98274.66;;;20.91;84.34
64294;BME280;50636;45.596;5.258;2022-09-16T05:36:54;98278.34;;;21.01;83.30
64294;BME280;50636;45.596;5.258;2022-09-16T05:39:20;98284.50;;;20.96;83.49
64294;BME280;50636;45.596;5.258;2022-09-16T05:41:46;98283.72;;;20.95;83.28
64294;BME280;50636;45.596;5.258;2022-09-16T05:44:12;98296.84;;;21.21;84.08
64294;BME280;50636;45.596;5.258;2022-09-16T05:46:38;98299.16;;;21.33;82.55
64294;BME280;50636;45.596;5.258;2022-09-16T05:49:05;98291.03;;;21.14;81.93
64294;BME280;50636;45.596;5.258;2022-09-16T05:51:35;98294.03;;;21.07;82.70
64294;BME280;50636;45.596;5.258;2022-09-16T05:54:00;98290.50;;;21.17;83.28
64294;BME280;50636;45.596;5.258;2022-09-16T05:56:26;98297.84;;;21.30;82.91
64294;BME280;50636;45.596;5.258;2022-09-16T05:58:55;98291.06;;;21.97;82.50
64294;BME280;50636;45.596;5.258;2022-09-16T06:01:25;98294.75;;;22.30;81.22
64294;BME280;50636;45.596;5.258;2022-09-16T06:03:51;98307.09;;;22.45;80.77
64294;BME280;50636;45.596;5.258;2022-09-16T06:08:47;98307.50;;;22.76;78.59
64294;BME280;50636;45.596;5.258;2022-09-16T06:11:13;98311.53;;;22.54;79.99
64294;BME280;50636;45.596;5.258;2022-09-16T06:13:39;98315.03;;;22.31;80.91
64294;BME280;50636;45.596;5.258;2022-09-16T06:16:05;98323.31;;;22.05;80.98
64294;BME280;50636;45.596;5.258;2022-09-16T06:18:31;98317.88;;;21.91;82.42
64294;BME280;50636;45.596;5.258;2022-09-16T06:20:57;98315.72;;;22.18;81.60
64294;BME280;50636;45.596;5.258;2022-09-16T06:23:23;98314.94;;;22.60;81.94
64294;BME280;50636;45.596;5.258;2022-09-16T06:25:57;98306.78;;;23.41;82.54
64294;BME280;50636;45.596;5.258;2022-09-16T06:28:23;98309.38;;;24.21;77.09
64294;BME280;50636;45.596;5.258;2022-09-16T06:30:48;98308.41;;;24.67;76.31
64294;BME280;50636;45.596;5.258;2022-09-16T06:33:14;98308.03;;;24.60;74.75
64294;BME280;50636;45.596;5.258;2022-09-16T06:35:40;98304.47;;;24.87;75.02
64294;BME280;50636;45.596;5.258;2022-09-16T06:38:06;98309.16;;;25.40;73.35
64294;BME280;50636;45.596;5.258;2022-09-16T06:40:31;98316.03;;;26.35;71.88
64294;BME280;50636;45.596;5.258;2022-09-16T06:42:56;98307.41;;;27.34;69.12
64294;BME280;50636;45.596;5.258;2022-09-16T06:45:22;98302.59;;;27.48;66.49
64294;BME280;50636;45.596;5.258;2022-09-16T06:47:47;98304.47;;;27.57;66.50
64294;BME280;50636;45.596;5.258;2022-09-16T06:50:13;98301.75;;;28.13;64.42
64294;BME280;50636;45.596;5.258;2022-09-16T06:52:38;98292.09;;;28.62;63.25
64294;BME280;50636;45.596;5.258;2022-09-16T06:55:04;98291.22;;;28.92;60.13
64294;BME280;50636;45.596;5.258;2022-09-16T06:57:29;98298.94;;;28.30;60.26
64294;BME280;50636;45.596;5.258;2022-09-16T06:59:55;98301.03;;;27.47;59.99
64294;BME280;50636;45.596;5.258;2022-09-16T07:02:21;98299.50;;;26.68;60.48
64294;BME280;50636;45.596;5.258;2022-09-16T07:04:46;98306.00;;;26.09;62.32
64294;BME280;50636;45.596;5.258;2022-09-16T07:07:12;98303.91;;;25.66;63.81
64294;BME280;50636;45.596;5.258;2022-09-16T07:09:40;98309.22;;;25.26;65.01
64294;BME280;50636;45.596;5.258;2022-09-16T07:12:06;98301.78;;;24.87;63.75
64294;BME280;50636;45.596;5.258;2022-09-16T07:14:32;98313.00;;;24.66;64.58
64294;BME280;50636;45.596;5.258;2022-09-16T07:16:57;98308.81;;;24.74;64.77
64294;BME280;50636;45.596;5.258;2022-09-16T07:19:23;98315.69;;;24.89;64.75
64294;BME280;50636;45.596;5.258;2022-09-16T07:21:49;98316.09;;;25.64;63.72
64294;BME280;50636;45.596;5.258;2022-09-16T07:24:14;98310.22;;;25.62;61.99
64294;BME280;50636;45.596;5.258;2022-09-16T07:26:40;98311.88;;;25.49;60.98
64294;BME280;50636;45.596;5.258;2022-09-16T07:29:06;98311.44;;;25.10;60.92
64294;BME280;50636;45.596;5.258;2022-09-16T07:31:35;98316.25;;;24.77;61.53
64294;BME280;50636;45.596;5.258;2022-09-16T07:34:03;98323.44;;;24.54;62.33
64294;BME280;50636;45.596;5.258;2022-09-16T07:36:30;98322.56;;;24.31;62.59
64294;BME280;50636;45.596;5.258;2022-09-16T07:38:58;98320.97;;;24.16;63.31
64294;BME280;50636;45.596;5.258;2022-09-16T07:41:27;98321.69;;;24.08;63.65
64294;BME280;50636;45.596;5.258;2022-09-16T07:43:54;98328.72;;;24.04;63.91
64294;BME280;50636;45.596;5.258;2022-09-16T07:46:20;98322.09;;;24.01;62.99
64294;BME280;50636;45.596;5.258;2022-09-16T07:48:47;98334.50;;;24.25;63.36
64294;BME280;50636;45.596;5.258;2022-09-16T07:51:23;98334.88;;;24.60;63.23
64294;BME280;50636;45.596;5.258;2022-09-16T07:53:52;98334.56;;;24.75;62.21
64294;BME280;50636;45.596;5.258;2022-09-16T07:56:19;98328.34;;;25.11;61.68
64294;BME280;50636;45.596;5.258;2022-09-16T07:58:47;98334.91;;;25.41;60.79
64294;BME280;50636;45.596;5.258;2022-09-16T08:01:13;98339.25;;;25.82;59.87
64294;BME280;50636;45.596;5.258;2022-09-16T08:03:42;98348.44;;;26.13;58.65
64294;BME280;50636;45.596;5.258;2022-09-16T08:06:10;98346.28;;;26.41;58.70
64294;BME280;50636;45.596;5.258;2022-09-16T08:08:37;98347.19;;;27.28;58.28
64294;BME280;50636;45.596;5.258;2022-09-16T08:11:02;98340.16;;;27.62;56.51
64294;BME280;50636;45.596;5.258;2022-09-16T08:13:29;98341.63;;;27.51;54.78
64294;BME280;50636;45.596;5.258;2022-09-16T08:15:58;98344.91;;;27.65;55.41
64294;BME280;50636;45.596;5.258;2022-09-16T08:18:24;98342.84;;;27.62;54.87
64294;BME280;50636;45.596;5.258;2022-09-16T08:20:50;98343.72;;;27.37;54.73
64294;BME280;50636;45.596;5.258;2022-09-16T08:23:18;98351.13;;;27.22;54.98
64294;BME280;50636;45.596;5.258;2022-09-16T08:25:44;98358.25;;;26.83;54.96
64294;BME280;50636;45.596;5.258;2022-09-16T08:28:13;98355.53;;;26.66;55.01
64294;BME280;50636;45.596;5.258;2022-09-16T08:30:39;98354.63;;;26.70;55.48
64294;BME280;50636;45.596;5.258;2022-09-16T08:33:04;98361.09;;;26.78;55.69
64294;BME280;50636;45.596;5.258;2022-09-16T08:35:30;98359.22;;;26.79;55.44
64294;BME280;50636;45.596;5.258;2022-09-16T08:37:55;98361.91;;;26.87;55.70
64294;BME280;50636;45.596;5.258;2022-09-16T08:40:22;98361.75;;;27.01;54.04
64294;BME280;50636;45.596;5.258;2022-09-16T08:45:17;98353.75;;;27.75;52.40
64294;BME280;50636;45.596;5.258;2022-09-16T08:50:33;98373.50;;;27.32;53.09
64294;BME280;50636;45.596;5.258;2022-09-16T08:53:02;98368.25;;;27.26;53.19
64294;BME280;50636;45.596;5.258;2022-09-16T08:55:33;98370.66;;;27.37;53.65
64294;BME280;50636;45.596;5.258;2022-09-16T08:58:01;98361.59;;;27.59;53.54
64294;BME280;50636;45.596;5.258;2022-09-16T09:00:28;98359.81;;;27.72;52.72
64294;BME280;50636;45.596;5.258;2022-09-16T09:14:00;98359.97;;;27.75;51.81
64294;BME280;50636;45.596;5.258;2022-09-16T09:15:59;98353.69;;;28.01;52.62
64294;BME280;50636;45.596;5.258;2022-09-16T09:18:38;98363.88;;;27.95;51.75
64294;BME280;50636;45.596;5.258;2022-09-16T09:21:26;98351.91;;;28.14;52.77
64294;BME280;50636;45.596;5.258;2022-09-16T09:37:07;98358.31;;;28.90;50.02
64294;BME280;50636;45.596;5.258;2022-09-16T09:42:23;98356.34;;;30.48;49.36
64294;BME280;50636;45.596;5.258;2022-09-16T09:47:24;98358.69;;;32.19;46.29
64294;BME280;50636;45.596;5.258;2022-09-16T09:53:22;98361.38;;;31.27;45.02
64294;BME280;50636;45.596;5.258;2022-09-16T09:55:26;98354.19;;;30.29;43.99
64294;BME280;50636;45.596;5.258;2022-09-16T09:58:01;98358.28;;;30.48;46.12
64294;BME280;50636;45.596;5.258;2022-09-16T10:00:29;98354.97;;;31.95;44.11
64294;BME280;50636;45.596;5.258;2022-09-16T10:03:00;98348.75;;;34.52;40.98
64294;BME280;50636;45.596;5.258;2022-09-16T10:05:28;98345.97;;;35.84;38.22
64294;BME280;50636;45.596;5.258;2022-09-16T10:07:54;98341.72;;;34.81;37.78
64294;BME280;50636;45.596;5.258;2022-09-16T10:10:22;98348.31;;;33.54;38.84
64294;BME280;50636;45.596;5.258;2022-09-16T10:12:48;98344.97;;;32.82;39.54
64294;BME280;50636;45.596;5.258;2022-09-16T10:15:25;98343.97;;;31.88;39.24
64294;BME280;50636;45.596;5.258;2022-09-16T10:17:51;98337.34;;;31.41;41.55
64294;BME280;50636;45.596;5.258;2022-09-16T10:20:22;98334.38;;;32.77;40.68
64294;BME280;50636;45.596;5.258;2022-09-16T10:23:03;98323.16;;;34.60;36.49
64294;BME280;50636;45.596;5.258;2022-09-16T10:25:30;98317.03;;;36.27;35.42
64294;BME280;50636;45.596;5.258;2022-09-16T10:27:57;98315.56;;;37.39;34.15
64294;BME280;50636;45.596;5.258;2022-09-16T10:30:25;98307.75;;;38.20;31.46
64294;BME280;50636;45.596;5.258;2022-09-16T10:33:11;98303.75;;;38.43;32.01
64294;BME280;50636;45.596;5.258;2022-09-16T10:35:38;98307.25;;;37.03;31.34
64294;BME280;50636;45.596;5.258;2022-09-16T10:38:19;98314.94;;;35.20;32.52
64294;BME280;50636;45.596;5.258;2022-09-16T10:40:55;98312.50;;;33.98;34.74
64294;BME280;50636;45.596;5.258;2022-09-16T10:43:26;98309.16;;;34.35;33.96
64294;BME280;50636;45.596;5.258;2022-09-16T10:45:58;98307.16;;;35.64;33.83
64294;BME280;50636;45.596;5.258;2022-09-16T10:48:27;98300.16;;;36.88;29.63
64294;BME280;50636;45.596;5.258;2022-09-16T10:50:57;98298.38;;;37.85;27.11
64294;BME280;50636;45.596;5.258;2022-09-16T10:53:28;98296.31;;;38.47;26.05
64294;BME280;50636;45.596;5.258;2022-09-16T10:55:58;98298.72;;;37.33;28.00
64294;BME280;50636;45.596;5.258;2022-09-16T10:58:24;98298.53;;;35.58;28.86
64294;BME280;50636;45.596;5.258;2022-09-16T11:03:22;98299.81;;;32.97;29.52
64294;BME280;50636;45.596;5.258;2022-09-16T11:05:57;98296.53;;;32.33;29.27
64294;BME280;50636;45.596;5.258;2022-09-16T11:08:37;98307.91;;;31.56;30.24
64294;BME280;50636;45.596;5.258;2022-09-16T11:29:54;98318.34;;;25.79;39.22
64294;BME280;50636;45.596;5.258;2022-09-16T11:32:26;98328.06;;;25.35;40.72
64294;BME280;50636;45.596;5.258;2022-09-16T11:45:38;98334.28;;;24.21;45.75
64294;BME280;50636;45.596;5.258;2022-09-16T11:48:15;98337.34;;;24.15;46.44
64294;BME280;50636;45.596;5.258;2022-09-16T11:51:05;98330.31;;;24.05;46.36
64294;BME280;50636;45.596;5.258;2022-09-16T11:53:54;98331.81;;;23.97;46.65
64294;BME280;50636;45.596;5.258;2022-09-16T12:12:43;98339.75;;;23.56;46.56
64294;BME280;50636;45.596;5.258;2022-09-16T12:15:21;98348.25;;;23.44;46.88
64294;BME280;50636;45.596;5.258;2022-09-16T12:17:59;98335.34;;;23.46;47.21
64294;BME280;50636;45.596;5.258;2022-09-16T12:20:30;98342.00;;;23.81;46.73
64294;BME280;50636;45.596;5.258;2022-09-16T12:25:25;98331.53;;;25.13;44.68
64294;BME280;50636;45.596;5.258;2022-09-16T12:28:04;98317.97;;;25.63;42.72
64294;BME280;50636;45.596;5.258;2022-09-16T12:30:35;98326.72;;;27.10;41.61
64294;BME280;50636;45.596;5.258;2022-09-16T12:33:05;98320.84;;;28.37;39.99
64294;BME280;50636;45.596;5.258;2022-09-16T12:35:41;98317.03;;;29.22;37.26
64294;BME280;50636;45.596;5.258;2022-09-16T12:38:16;98309.88;;;29.72;36.71
64294;BME280;50636;45.596;5.258;2022-09-16T12:46:08;98299.59;;;30.39;32.80
64294;BME280;50636;45.596;5.258;2022-09-16T12:51:07;98302.09;;;29.83;32.70
64294;BME280;50636;45.596;5.258;2022-09-16T12:54:02;98297.34;;;30.29;30.54
64294;BME280;50636;45.596;5.258;2022-09-16T12:56:28;98293.84;;;30.04;30.97
64294;BME280;50636;45.596;5.258;2022-09-16T13:01:43;98289.81;;;30.35;30.70
64294;BME280;50636;45.596;5.258;2022-09-16T13:06:43;98297.13;;;30.34;31.26
64294;BME280;50636;45.596;5.258;2022-09-16T13:11:38;98290.09;;;30.58;31.90
64294;BME280;50636;45.596;5.258;2022-09-16T13:14:04;98290.91;;;30.46;32.06
64294;BME280;50636;45.596;5.258;2022-09-16T13:16:31;98283.94;;;30.33;31.69
64294;BME280;50636;45.596;5.258;2022-09-16T13:21:42;98282.34;;;30.32;32.50
64294;BME280;50636;45.596;5.258;2022-09-16T13:24:29;98276.59;;;30.33;31.33
64294;BME280;50636;45.596;5.258;2022-09-16T13:26:55;98275.72;;;30.04;31.39
64294;BME280;50636;45.596;5.258;2022-09-16T13:32:02;98280.44;;;29.95;31.33
64294;BME280;50636;45.596;5.258;2022-09-16T13:34:28;98282.66;;;29.68;31.60
64294;BME280;50636;45.596;5.258;2022-09-16T13:36:54;98276.84;;;29.33;32.23
64294;BME280;50636;45.596;5.258;2022-09-16T13:39:32;98274.44;;;28.86;32.99
64294;BME280;50636;45.596;5.258;2022-09-16T13:42:16;98279.00;;;28.52;33.74
64294;BME280;50636;45.596;5.258;2022-09-16T13:44:42;98275.44;;;28.09;34.82
64294;BME280;50636;45.596;5.258;2022-09-16T13:52:31;98292.03;;;27.26;35.51
64294;BME280;50636;45.596;5.258;2022-09-16T13:55:01;98294.59;;;26.70;35.83
64294;BME280;50636;45.596;5.258;2022-09-16T13:57:42;98281.72;;;26.32;36.48
64294;BME280;50636;45.596;5.258;2022-09-16T14:00:23;98296.66;;;25.98;37.55
64294;BME280;50636;45.596;5.258;2022-09-16T14:02:55;98292.78;;;25.82;37.80
64294;BME280;50636;45.596;5.258;2022-09-16T14:13:22;98296.38;;;25.77;37.51
64294;BME280;50636;45.596;5.258;2022-09-16T14:15:50;98285.63;;;25.77;37.41
64294;BME280;50636;45.596;5.258;2022-09-16T14:18:18;98296.78;;;25.93;37.50
64294;BME280;50636;45.596;5.258;2022-09-16T14:23:28;98288.66;;;26.24;37.60
64294;BME280;50636;45.596;5.258;2022-09-16T14:25:54;98283.44;;;26.28;37.23
64294;BME280;50636;45.596;5.258;2022-09-16T14:28:23;98285.75;;;26.03;37.49
64294;BME280;50636;45.596;5.258;2022-09-16T14:30:51;98289.13;;;25.78;38.03
64294;BME280;50636;45.596;5.258;2022-09-16T14:33:18;98291.44;;;25.39;38.67
64294;BME280;50636;45.596;5.258;2022-09-16T14:35:47;98284.25;;;25.03;39.32
64294;BME280;50636;45.596;5.258;2022-09-16T14:38:33;98292.59;;;24.79;39.39
64294;BME280;50636;45.596;5.258;2022-09-16T14:41:00;98285.44;;;24.75;39.70
64294;BME280;50636;45.596;5.258;2022-09-16T14:43:29;98290.50;;;24.76;40.05
64294;BME280;50636;45.596;5.258;2022-09-16T14:46:01;98297.56;;;24.72;40.13
64294;BME280;50636;45.596;5.258;2022-09-16T14:48:32;98283.84;;;24.74;39.92
64294;BME280;50636;45.596;5.258;2022-09-16T14:51:01;98279.78;;;24.76;40.00
64294;BME280;50636;45.596;5.258;2022-09-16T14:53:31;98277.72;;;24.96;39.38
64294;BME280;50636;45.596;5.258;2022-09-16T14:55:57;98285.47;;;25.20;39.29
64294;BME280;50636;45.596;5.258;2022-09-16T14:58:24;98286.38;;;25.38;39.28
64294;BME280;50636;45.596;5.258;2022-09-16T15:01:04;98279.91;;;25.39;38.74
64294;BME280;50636;45.596;5.258;2022-09-16T15:03:36;98282.06;;;25.28;38.96
64294;BME280;50636;45.596;5.258;2022-09-16T15:06:08;98283.81;;;25.10;39.22
64294;BME280;50636;45.596;5.258;2022-09-16T15:08:39;98275.88;;;24.82;39.16
64294;BME280;50636;45.596;5.258;2022-09-16T15:11:11;98273.59;;;24.53;39.59
64294;BME280;50636;45.596;5.258;2022-09-16T15:13:37;98274.28;;;24.45;40.07
64294;BME280;50636;45.596;5.258;2022-09-16T15:16:07;98264.91;;;24.42;40.37
64294;BME280;50636;45.596;5.258;2022-09-16T15:18:37;98265.91;;;24.60;40.35
64294;BME280;50636;45.596;5.258;2022-09-16T15:21:05;98261.72;;;24.68;40.21
64294;BME280;50636;45.596;5.258;2022-09-16T15:23:32;98256.72;;;24.75;40.24
64294;BME280;50636;45.596;5.258;2022-09-16T15:26:08;98261.47;;;24.78;40.11
64294;BME280;50636;45.596;5.258;2022-09-16T15:28:36;98256.41;;;24.77;39.76
64294;BME280;50636;45.596;5.258;2022-09-16T15:31:02;98257.94;;;24.69;39.56
64294;BME280;50636;45.596;5.258;2022-09-16T15:33:35;98255.09;;;24.51;40.04
64294;BME280;50636;45.596;5.258;2022-09-16T15:36:01;98246.28;;;24.37;39.98
64294;BME280;50636;45.596;5.258;2022-09-16T15:38:28;98256.34;;;24.18;40.27
64294;BME280;50636;45.596;5.258;2022-09-16T15:43:27;98256.34;;;24.04;40.37
64294;BME280;50636;45.596;5.258;2022-09-16T15:45:57;98262.91;;;24.11;39.51
64294;BME280;50636;45.596;5.258;2022-09-16T15:48:23;98259.00;;;24.18;39.72
64294;BME280;50636;45.596;5.258;2022-09-16T15:50:52;98259.91;;;24.27;38.85
64294;BME280;50636;45.596;5.258;2022-09-16T15:55:57;98246.63;;;24.44;37.55
64294;BME280;50636;45.596;5.258;2022-09-16T16:06:09;98247.63;;;24.48;36.70
64294;BME280;50636;45.596;5.258;2022-09-16T16:08:48;98263.94;;;24.52;36.69